sensor_id;sensor_type;location;lat;lon;timestamp;P1;durP1;ratioP1;P2;durP2;ratioP2
13122;SDS011;6627;50.920;12.050;2023-07-16T00:00:17;9.23;;;6.07;;
13122;SDS011;6627;50.920;12.050;2023-07-16T00:02:46;8.17;;;5.90;;
13122;SDS011;6627;50.920;12.050;2023-07-16T00:05:14;8.17;;;6.17;;
13122;SDS011;6627;50.920;12.050;2023-07-16T00:07:42;11.83;;;5.80;;
13122;SDS011;6627;50.920;12.050;2023-07-16T00:10:10;6.33;;;5.70;;
13122;SDS011;6627;50.920;12.050;2023-07-16T00:12:38;8.87;;;6.30;;
13122;SDS011;6627;50.920;12.050;2023-07-16T00:15:05;11.40;;;6.13;;
13122;SDS011;6627;50.920;12.050;2023-07-16T00:17:36;8.93;;;6.17;;
13122;SDS011;6627;50.920;12.050;2023-07-16T00:20:03;8.23;;;6.90;;
13122;SDS011;6627;50.920;12.050;2023-07-16T00:22:32;10.27;;;7.17;;
13122;SDS011;6627;50.920;12.050;2023-07-16T00:24:59;7.97;;;6.70;;
13122;SDS011;6627;50.920;12.050;2023-07-16T00:27:28;9.83;;;6.70;;
13122;SDS011;6627;50.920;12.050;2023-07-16T00:29:55;11.83;;;6.80;;
13122;SDS011;6627;50.920;12.050;2023-07-16T00:32:23;6.87;;;6.17;;
13122;SDS011;6627;50.920;12.050;2023-07-16T00:34:52;9.70;;;6.80;;
13122;SDS011;6627;50.920;12.050;2023-07-16T00:37:19;10.30;;;6.73;;
13122;SDS011;6627;50.920;12.050;2023-07-16T00:39:46;9.73;;;6.27;;
13122;SDS011;6627;50.920;12.050;2023-07-16T00:42:14;8.67;;;5.87;;
13122;SDS011;6627;50.920;12.050;2023-07-16T00:44:41;7.83;;;6.37;;
13122;SDS011;6627;50.920;12.050;2023-07-16T00:47:09;8.33;;;6.27;;
13122;SDS011;6627;50.920;12.050;2023-07-16T00:49:37;11.53;;;6.43;;
13122;SDS011;6627;50.920;12.050;2023-07-16T00:52:13;9.67;;;6.37;;
13122;SDS011;6627;50.920;12.050;2023-07-16T00:54:46;7.07;;;6.20;;
13122;SDS011;6627;50.920;12.050;2023-07-16T00:57:15;7.10;;;5.53;;
13122;SDS011;6627;50.920;12.050;2023-07-16T00:59:42;8.50;;;6.47;;
13122;SDS011;6627;50.920;12.050;2023-07-16T01:02:09;12.20;;;6.47;;
13122;SDS011;6627;50.920;12.050;2023-07-16T01:04:38;6.90;;;6.17;;
13122;SDS011;6627;50.920;12.050;2023-07-16T01:07:06;9.50;;;6.07;;
13122;SDS011;6627;50.920;12.050;2023-07-16T01:09:41;6.33;;;5.63;;
13122;SDS011;6627;50.920;12.050;2023-07-16T01:12:09;8.80;;;6.33;;
13122;SDS011;6627;50.920;12.050;2023-07-16T01:14:38;6.90;;;5.40;;
13122;SDS011;6627;50.920;12.050;2023-07-16T01:17:07;7.27;;;5.50;;
13122;SDS011;6627;50.920;12.050;2023-07-16T01:19:34;6.40;;;5.10;;
13122;SDS011;6627;50.920;12.050;2023-07-16T01:25:09;6.47;;;5.50;;
13122;SDS011;6627;50.920;12.050;2023-07-16T01:27:58;8.27;;;5.10;;
13122;SDS011;6627;50.920;12.050;2023-07-16T01:30:41;5.80;;;4.73;;
13122;SDS011;6627;50.920;12.050;2023-07-16T01:33:12;6.63;;;4.90;;
13122;SDS011;6627;50.920;12.050;2023-07-16T01:35:43;7.87;;;5.30;;
13122;SDS011;6627;50.920;12.050;2023-07-16T01:38:12;5.57;;;5.07;;
13122;SDS011;6627;50.920;12.050;2023-07-16T01:40:41;7.27;;;5.57;;
13122;SDS011;6627;50.920;12.050;2023-07-16T01:43:09;9.87;;;5.50;;
13122;SDS011;6627;50.920;12.050;2023-07-16T01:45:36;6.73;;;5.50;;
13122;SDS011;6627;50.920;12.050;2023-07-16T01:48:05;6.57;;;5.50;;
13122;SDS011;6627;50.920;12.050;2023-07-16T01:50:44;8.40;;;5.37;;
13122;SDS011;6627;50.920;12.050;2023-07-16T01:53:12;7.13;;;5.70;;
13122;SDS011;6627;50.920;12.050;2023-07-16T01:55:39;5.80;;;5.23;;
13122;SDS011;6627;50.920;12.050;2023-07-16T01:58:07;7.93;;;5.77;;
13122;SDS011;6627;50.920;12.050;2023-07-16T02:00:35;5.93;;;5.10;;
13122;SDS011;6627;50.920;12.050;2023-07-16T02:03:02;6.70;;;6.00;;
13122;SDS011;6627;50.920;12.050;2023-07-16T02:05:32;6.80;;;5.70;;
13122;SDS011;6627;50.920;12.050;2023-07-16T02:07:59;6.77;;;5.00;;
13122;SDS011;6627;50.920;12.050;2023-07-16T02:10:26;6.23;;;5.63;;
13122;SDS011;6627;50.920;12.050;2023-07-16T02:12:54;5.90;;;5.30;;
13122;SDS011;6627;50.920;12.050;2023-07-16T02:15:22;7.43;;;4.80;;
13122;SDS011;6627;50.920;12.050;2023-07-16T02:17:49;6.53;;;4.70;;
13122;SDS011;6627;50.920;12.050;2023-07-16T02:20:18;6.60;;;5.00;;
13122;SDS011;6627;50.920;12.050;2023-07-16T02:22:46;6.77;;;4.63;;
13122;SDS011;6627;50.920;12.050;2023-07-16T02:25:14;6.00;;;5.03;;
13122;SDS011;6627;50.920;12.050;2023-07-16T02:27:41;6.50;;;5.10;;
13122;SDS011;6627;50.920;12.050;2023-07-16T02:30:09;6.90;;;5.20;;
13122;SDS011;6627;50.920;12.050;2023-07-16T02:32:36;5.73;;;4.60;;
13122;SDS011;6627;50.920;12.050;2023-07-16T02:35:04;7.40;;;5.67;;
13122;SDS011;6627;50.920;12.050;2023-07-16T02:37:34;5.10;;;4.60;;
13122;SDS011;6627;50.920;12.050;2023-07-16T02:40:02;6.70;;;4.93;;
13122;SDS011;6627;50.920;12.050;2023-07-16T02:42:30;5.67;;;5.07;;
13122;SDS011;6627;50.920;12.050;2023-07-16T02:44:57;5.53;;;5.03;;
13122;SDS011;6627;50.920;12.050;2023-07-16T02:47:24;7.83;;;5.40;;
13122;SDS011;6627;50.920;12.050;2023-07-16T02:49:51;4.93;;;4.43;;
13122;SDS011;6627;50.920;12.050;2023-07-16T02:52:18;6.77;;;5.20;;
13122;SDS011;6627;50.920;12.050;2023-07-16T02:54:47;5.53;;;5.03;;
13122;SDS011;6627;50.920;12.050;2023-07-16T02:57:14;6.07;;;4.53;;
13122;SDS011;6627;50.920;12.050;2023-07-16T02:59:41;5.40;;;4.43;;
13122;SDS011;6627;50.920;12.050;2023-07-16T03:02:09;4.97;;;4.47;;
13122;SDS011;6627;50.920;12.050;2023-07-16T03:04:36;5.80;;;4.73;;
13122;SDS011;6627;50.920;12.050;2023-07-16T03:07:04;4.40;;;4.00;;
13122;SDS011;6627;50.920;12.050;2023-07-16T03:09:31;5.30;;;3.80;;
13122;SDS011;6627;50.920;12.050;2023-07-16T03:12:00;5.33;;;4.30;;
13122;SDS011;6627;50.920;12.050;2023-07-16T03:14:27;5.10;;;4.43;;
13122;SDS011;6627;50.920;12.050;2023-07-16T03:16:54;4.87;;;4.10;;
13122;SDS011;6627;50.920;12.050;2023-07-16T03:19:22;6.37;;;3.90;;
13122;SDS011;6627;50.920;12.050;2023-07-16T03:21:49;4.10;;;3.70;;
13122;SDS011;6627;50.920;12.050;2023-07-16T03:24:16;4.37;;;3.57;;
13122;SDS011;6627;50.920;12.050;2023-07-16T03:26:44;8.33;;;4.07;;
13122;SDS011;6627;50.920;12.050;2023-07-16T03:29:20;6.30;;;3.33;;
13122;SDS011;6627;50.920;12.050;2023-07-16T03:31:47;4.10;;;3.70;;
13122;SDS011;6627;50.920;12.050;2023-07-16T03:34:15;5.63;;;3.50;;
13122;SDS011;6627;50.920;12.050;2023-07-16T03:36:43;5.57;;;3.53;;
13122;SDS011;6627;50.920;12.050;2023-07-16T03:39:10;4.60;;;3.30;;
13122;SDS011;6627;50.920;12.050;2023-07-16T03:41:37;4.90;;;3.20;;
13122;SDS011;6627;50.920;12.050;2023-07-16T03:44:05;6.13;;;3.50;;
13122;SDS011;6627;50.920;12.050;2023-07-16T03:46:33;3.93;;;2.93;;
13122;SDS011;6627;50.920;12.050;2023-07-16T03:49:00;4.93;;;2.87;;
13122;SDS011;6627;50.920;12.050;2023-07-16T03:51:28;3.40;;;2.90;;
13122;SDS011;6627;50.920;12.050;2023-07-16T03:53:55;4.53;;;3.07;;
13122;SDS011;6627;50.920;12.050;2023-07-16T03:56:23;4.50;;;2.40;;
13122;SDS011;6627;50.920;12.050;2023-07-16T03:58:50;4.33;;;2.70;;
13122;SDS011;6627;50.920;12.050;2023-07-16T04:01:17;4.27;;;2.60;;
13122;SDS011;6627;50.920;12.050;2023-07-16T04:03:46;5.73;;;2.80;;
13122;SDS011;6627;50.920;12.050;2023-07-16T04:06:13;5.17;;;2.80;;
13122;SDS011;6627;50.920;12.050;2023-07-16T04:08:40;3.63;;;2.83;;
13122;SDS011;6627;50.920;12.050;2023-07-16T04:11:08;4.37;;;2.90;;
13122;SDS011;6627;50.920;12.050;2023-07-16T04:13:35;2.60;;;2.40;;
13122;SDS011;6627;50.920;12.050;2023-07-16T04:16:02;3.03;;;2.60;;
13122;SDS011;6627;50.920;12.050;2023-07-16T04:18:30;3.17;;;2.60;;
13122;SDS011;6627;50.920;12.050;2023-07-16T04:20:59;3.30;;;2.60;;
13122;SDS011;6627;50.920;12.050;2023-07-16T04:23:26;4.03;;;2.63;;
13122;SDS011;6627;50.920;12.050;2023-07-16T04:25:53;2.90;;;2.30;;
13122;SDS011;6627;50.920;12.050;2023-07-16T04:28:22;3.03;;;2.27;;
13122;SDS011;6627;50.920;12.050;2023-07-16T04:30:49;2.73;;;2.30;;
13122;SDS011;6627;50.920;12.050;2023-07-16T04:33:16;5.57;;;2.60;;
13122;SDS011;6627;50.920;12.050;2023-07-16T04:35:44;2.73;;;2.50;;
13122;SDS011;6627;50.920;12.050;2023-07-16T04:38:13;5.53;;;2.40;;
13122;SDS011;6627;50.920;12.050;2023-07-16T04:40:41;3.50;;;2.60;;
13122;SDS011;6627;50.920;12.050;2023-07-16T04:43:08;4.63;;;2.67;;
13122;SDS011;6627;50.920;12.050;2023-07-16T04:45:35;3.73;;;2.57;;
13122;SDS011;6627;50.920;12.050;2023-07-16T04:48:05;3.03;;;2.47;;
13122;SDS011;6627;50.920;12.050;2023-07-16T04:50:32;3.07;;;2.30;;
13122;SDS011;6627;50.920;12.050;2023-07-16T04:52:59;4.03;;;2.33;;
13122;SDS011;6627;50.920;12.050;2023-07-16T04:55:28;3.90;;;2.40;;
13122;SDS011;6627;50.920;12.050;2023-07-16T04:57:55;5.30;;;2.27;;
13122;SDS011;6627;50.920;12.050;2023-07-16T05:00:22;5.00;;;2.40;;
13122;SDS011;6627;50.920;12.050;2023-07-16T05:02:50;4.07;;;2.10;;
13122;SDS011;6627;50.920;12.050;2023-07-16T05:05:17;3.87;;;2.30;;
13122;SDS011;6627;50.920;12.050;2023-07-16T05:07:44;4.27;;;2.23;;
13122;SDS011;6627;50.920;12.050;2023-07-16T05:10:15;3.10;;;2.03;;
13122;SDS011;6627;50.920;12.050;2023-07-16T05:12:44;4.50;;;2.40;;
13122;SDS011;6627;50.920;12.050;2023-07-16T05:15:12;2.83;;;2.30;;
13122;SDS011;6627;50.920;12.050;2023-07-16T05:17:39;2.57;;;2.00;;
13122;SDS011;6627;50.920;12.050;2023-07-16T05:20:07;4.97;;;2.30;;
13122;SDS011;6627;50.920;12.050;2023-07-16T05:22:36;3.20;;;2.20;;
13122;SDS011;6627;50.920;12.050;2023-07-16T05:25:03;3.33;;;2.33;;
13122;SDS011;6627;50.920;12.050;2023-07-16T05:27:31;2.90;;;1.90;;
13122;SDS011;6627;50.920;12.050;2023-07-16T05:30:00;2.27;;;1.90;;
13122;SDS011;6627;50.920;12.050;2023-07-16T05:32:27;2.73;;;1.83;;
13122;SDS011;6627;50.920;12.050;2023-07-16T05:34:54;2.27;;;1.97;;
13122;SDS011;6627;50.920;12.050;2023-07-16T05:37:22;2.60;;;2.00;;
13122;SDS011;6627;50.920;12.050;2023-07-16T05:39:49;4.87;;;2.20;;
13122;SDS011;6627;50.920;12.050;2023-07-16T05:42:16;3.50;;;2.10;;
13122;SDS011;6627;50.920;12.050;2023-07-16T05:44:43;2.37;;;2.13;;
13122;SDS011;6627;50.920;12.050;2023-07-16T05:47:15;4.40;;;2.17;;
13122;SDS011;6627;50.920;12.050;2023-07-16T05:49:42;2.97;;;2.17;;
13122;SDS011;6627;50.920;12.050;2023-07-16T05:52:10;3.20;;;2.33;;
13122;SDS011;6627;50.920;12.050;2023-07-16T05:54:37;5.23;;;2.37;;
13122;SDS011;6627;50.920;12.050;2023-07-16T05:57:05;2.80;;;1.93;;
13122;SDS011;6627;50.920;12.050;2023-07-16T05:59:33;2.60;;;2.10;;
13122;SDS011;6627;50.920;12.050;2023-07-16T06:02:02;4.50;;;1.90;;
13122;SDS011;6627;50.920;12.050;2023-07-16T06:04:31;4.33;;;2.10;;
13122;SDS011;6627;50.920;12.050;2023-07-16T06:06:59;6.90;;;2.10;;
13122;SDS011;6627;50.920;12.050;2023-07-16T06:09:26;5.77;;;2.47;;
13122;SDS011;6627;50.920;12.050;2023-07-16T06:11:53;3.37;;;2.00;;
13122;SDS011;6627;50.920;12.050;2023-07-16T06:14:21;2.47;;;1.90;;
13122;SDS011;6627;50.920;12.050;2023-07-16T06:16:48;4.50;;;2.17;;
13122;SDS011;6627;50.920;12.050;2023-07-16T06:19:15;3.73;;;1.80;;
13122;SDS011;6627;50.920;12.050;2023-07-16T06:21:44;3.37;;;2.13;;
13122;SDS011;6627;50.920;12.050;2023-07-16T06:24:11;4.20;;;2.10;;
13122;SDS011;6627;50.920;12.050;2023-07-16T06:26:38;5.27;;;1.93;;
13122;SDS011;6627;50.920;12.050;2023-07-16T06:29:05;4.77;;;2.03;;
13122;SDS011;6627;50.920;12.050;2023-07-16T06:31:32;2.20;;;1.73;;
13122;SDS011;6627;50.920;12.050;2023-07-16T06:34:00;3.10;;;2.07;;
13122;SDS011;6627;50.920;12.050;2023-07-16T06:36:28;4.60;;;2.03;;
13122;SDS011;6627;50.920;12.050;2023-07-16T06:38:56;5.70;;;2.20;;
13122;SDS011;6627;50.920;12.050;2023-07-16T06:41:25;3.23;;;2.07;;
13122;SDS011;6627;50.920;12.050;2023-07-16T06:43:54;5.47;;;2.07;;
13122;SDS011;6627;50.920;12.050;2023-07-16T06:46:21;3.20;;;2.07;;
13122;SDS011;6627;50.920;12.050;2023-07-16T06:48:48;4.27;;;2.20;;
13122;SDS011;6627;50.920;12.050;2023-07-16T06:51:15;3.20;;;2.13;;
13122;SDS011;6627;50.920;12.050;2023-07-16T06:53:43;3.40;;;2.00;;
13122;SDS011;6627;50.920;12.050;2023-07-16T06:56:12;2.83;;;2.00;;
13122;SDS011;6627;50.920;12.050;2023-07-16T06:58:39;2.10;;;1.90;;
13122;SDS011;6627;50.920;12.050;2023-07-16T07:01:06;3.63;;;1.97;;
13122;SDS011;6627;50.920;12.050;2023-07-16T07:03:33;2.93;;;1.90;;
13122;SDS011;6627;50.920;12.050;2023-07-16T07:06:01;3.93;;;1.77;;
13122;SDS011;6627;50.920;12.050;2023-07-16T07:08:30;3.73;;;2.10;;
13122;SDS011;6627;50.920;12.050;2023-07-16T07:10:57;5.00;;;1.63;;
13122;SDS011;6627;50.920;12.050;2023-07-16T07:13:26;4.33;;;2.33;;
13122;SDS011;6627;50.920;12.050;2023-07-16T07:15:55;4.33;;;2.10;;
13122;SDS011;6627;50.920;12.050;2023-07-16T07:18:22;3.90;;;2.07;;
13122;SDS011;6627;50.920;12.050;2023-07-16T07:20:49;5.37;;;2.20;;
13122;SDS011;6627;50.920;12.050;2023-07-16T07:23:17;2.80;;;1.70;;
13122;SDS011;6627;50.920;12.050;2023-07-16T07:25:48;4.13;;;1.97;;
13122;SDS011;6627;50.920;12.050;2023-07-16T07:28:16;6.00;;;2.10;;
13122;SDS011;6627;50.920;12.050;2023-07-16T07:30:47;4.70;;;2.33;;
13122;SDS011;6627;50.920;12.050;2023-07-16T07:33:15;4.97;;;2.20;;
13122;SDS011;6627;50.920;12.050;2023-07-16T07:35:42;4.27;;;1.70;;
13122;SDS011;6627;50.920;12.050;2023-07-16T07:38:10;4.80;;;2.07;;
13122;SDS011;6627;50.920;12.050;2023-07-16T07:40:37;4.77;;;2.23;;
13122;SDS011;6627;50.920;12.050;2023-07-16T07:43:04;4.50;;;2.10;;
13122;SDS011;6627;50.920;12.050;2023-07-16T07:45:32;4.37;;;1.93;;
13122;SDS011;6627;50.920;12.050;2023-07-16T07:48:00;6.43;;;2.27;;
13122;SDS011;6627;50.920;12.050;2023-07-16T07:50:27;5.43;;;2.10;;
13122;SDS011;6627;50.920;12.050;2023-07-16T07:52:55;3.90;;;2.00;;
13122;SDS011;6627;50.920;12.050;2023-07-16T07:55:22;3.43;;;1.80;;
13122;SDS011;6627;50.920;12.050;2023-07-16T07:57:49;3.63;;;1.97;;
13122;SDS011;6627;50.920;12.050;2023-07-16T08:00:17;3.03;;;1.60;;
13122;SDS011;6627;50.920;12.050;2023-07-16T08:02:44;4.47;;;1.90;;
13122;SDS011;6627;50.920;12.050;2023-07-16T08:05:13;4.13;;;1.87;;
13122;SDS011;6627;50.920;12.050;2023-07-16T08:07:40;5.33;;;1.97;;
13122;SDS011;6627;50.920;12.050;2023-07-16T08:10:08;2.00;;;1.80;;
13122;SDS011;6627;50.920;12.050;2023-07-16T08:12:36;4.83;;;2.03;;
13122;SDS011;6627;50.920;12.050;2023-07-16T08:15:04;3.83;;;1.90;;
13122;SDS011;6627;50.920;12.050;2023-07-16T08:17:34;5.27;;;1.80;;
13122;SDS011;6627;50.920;12.050;2023-07-16T08:20:02;4.20;;;2.00;;
13122;SDS011;6627;50.920;12.050;2023-07-16T08:22:32;4.73;;;2.07;;
13122;SDS011;6627;50.920;12.050;2023-07-16T08:24:59;3.43;;;2.07;;
13122;SDS011;6627;50.920;12.050;2023-07-16T08:27:28;6.13;;;2.07;;
13122;SDS011;6627;50.920;12.050;2023-07-16T08:29:56;3.60;;;1.90;;
13122;SDS011;6627;50.920;12.050;2023-07-16T08:32:23;2.67;;;1.80;;
13122;SDS011;6627;50.920;12.050;2023-07-16T08:34:50;3.77;;;2.13;;
13122;SDS011;6627;50.920;12.050;2023-07-16T08:37:18;3.03;;;1.93;;
13122;SDS011;6627;50.920;12.050;2023-07-16T08:39:47;3.43;;;1.70;;
13122;SDS011;6627;50.920;12.050;2023-07-16T08:42:18;4.43;;;1.70;;
13122;SDS011;6627;50.920;12.050;2023-07-16T08:44:46;6.13;;;1.87;;
13122;SDS011;6627;50.920;12.050;2023-07-16T08:47:16;4.40;;;2.10;;
13122;SDS011;6627;50.920;12.050;2023-07-16T08:49:44;2.90;;;1.90;;
13122;SDS011;6627;50.920;12.050;2023-07-16T08:52:20;2.60;;;1.67;;
13122;SDS011;6627;50.920;12.050;2023-07-16T08:54:49;3.10;;;2.00;;
13122;SDS011;6627;50.920;12.050;2023-07-16T08:57:16;3.00;;;1.53;;
13122;SDS011;6627;50.920;12.050;2023-07-16T08:59:46;3.77;;;2.03;;
13122;SDS011;6627;50.920;12.050;2023-07-16T09:02:15;4.53;;;2.20;;
13122;SDS011;6627;50.920;12.050;2023-07-16T09:04:45;3.60;;;1.90;;
13122;SDS011;6627;50.920;12.050;2023-07-16T09:07:14;3.83;;;1.93;;
13122;SDS011;6627;50.920;12.050;2023-07-16T09:09:42;3.27;;;1.77;;
13122;SDS011;6627;50.920;12.050;2023-07-16T09:12:12;3.27;;;1.90;;
13122;SDS011;6627;50.920;12.050;2023-07-16T09:14:40;4.50;;;2.03;;
13122;SDS011;6627;50.920;12.050;2023-07-16T09:17:08;5.57;;;1.73;;
13122;SDS011;6627;50.920;12.050;2023-07-16T09:19:35;5.90;;;2.20;;
13122;SDS011;6627;50.920;12.050;2023-07-16T09:22:03;3.70;;;1.83;;
13122;SDS011;6627;50.920;12.050;2023-07-16T09:24:30;4.37;;;2.03;;
13122;SDS011;6627;50.920;12.050;2023-07-16T09:26:58;5.03;;;1.90;;
13122;SDS011;6627;50.920;12.050;2023-07-16T09:29:28;4.47;;;2.27;;
13122;SDS011;6627;50.920;12.050;2023-07-16T09:31:55;4.47;;;2.23;;
13122;SDS011;6627;50.920;12.050;2023-07-16T09:34:26;4.33;;;2.30;;
13122;SDS011;6627;50.920;12.050;2023-07-16T09:36:56;3.17;;;1.80;;
13122;SDS011;6627;50.920;12.050;2023-07-16T09:39:25;3.53;;;1.80;;
13122;SDS011;6627;50.920;12.050;2023-07-16T09:41:53;4.27;;;1.83;;
13122;SDS011;6627;50.920;12.050;2023-07-16T09:44:22;6.07;;;2.17;;
13122;SDS011;6627;50.920;12.050;2023-07-16T09:46:51;5.03;;;1.90;;
13122;SDS011;6627;50.920;12.050;2023-07-16T09:49:18;4.27;;;1.70;;
13122;SDS011;6627;50.920;12.050;2023-07-16T09:51:45;4.47;;;2.07;;
13122;SDS011;6627;50.920;12.050;2023-07-16T09:54:18;3.80;;;2.10;;
13122;SDS011;6627;50.920;12.050;2023-07-16T09:56:48;3.00;;;1.90;;
13122;SDS011;6627;50.920;12.050;2023-07-16T09:59:21;6.13;;;2.00;;
13122;SDS011;6627;50.920;12.050;2023-07-16T10:01:54;3.43;;;1.80;;
13122;SDS011;6627;50.920;12.050;2023-07-16T10:04:21;3.37;;;2.07;;
13122;SDS011;6627;50.920;12.050;2023-07-16T10:06:52;4.40;;;1.90;;
13122;SDS011;6627;50.920;12.050;2023-07-16T10:09:34;4.30;;;1.90;;
13122;SDS011;6627;50.920;12.050;2023-07-16T10:12:13;6.23;;;2.13;;
13122;SDS011;6627;50.920;12.050;2023-07-16T10:14:43;3.87;;;1.70;;
13122;SDS011;6627;50.920;12.050;2023-07-16T10:17:17;6.67;;;2.17;;
13122;SDS011;6627;50.920;12.050;2023-07-16T10:19:50;3.57;;;1.70;;
13122;SDS011;6627;50.920;12.050;2023-07-16T10:22:30;4.60;;;2.00;;
13122;SDS011;6627;50.920;12.050;2023-07-16T10:25:01;5.10;;;1.90;;
13122;SDS011;6627;50.920;12.050;2023-07-16T10:27:29;4.07;;;2.00;;
13122;SDS011;6627;50.920;12.050;2023-07-16T10:29:58;2.80;;;1.90;;
13122;SDS011;6627;50.920;12.050;2023-07-16T10:32:29;5.27;;;2.30;;
13122;SDS011;6627;50.920;12.050;2023-07-16T10:34:59;5.23;;;2.13;;
13122;SDS011;6627;50.920;12.050;2023-07-16T10:37:27;2.87;;;1.97;;
13122;SDS011;6627;50.920;12.050;2023-07-16T10:39:55;5.77;;;2.50;;
13122;SDS011;6627;50.920;12.050;2023-07-16T10:42:25;4.63;;;2.00;;
13122;SDS011;6627;50.920;12.050;2023-07-16T10:44:54;4.60;;;2.10;;
13122;SDS011;6627;50.920;12.050;2023-07-16T10:47:30;5.03;;;2.13;;
13122;SDS011;6627;50.920;12.050;2023-07-16T10:50:00;3.33;;;2.20;;
13122;SDS011;6627;50.920;12.050;2023-07-16T10:52:30;4.53;;;2.10;;
13122;SDS011;6627;50.920;12.050;2023-07-16T10:54:57;3.37;;;2.10;;
13122;SDS011;6627;50.920;12.050;2023-07-16T10:57:25;2.77;;;1.60;;
13122;SDS011;6627;50.920;12.050;2023-07-16T10:59:54;7.67;;;2.40;;
13122;SDS011;6627;50.920;12.050;2023-07-16T11:02:25;3.90;;;2.00;;
13122;SDS011;6627;50.920;12.050;2023-07-16T11:04:54;3.10;;;2.17;;
13122;SDS011;6627;50.920;12.050;2023-07-16T11:07:23;4.83;;;2.10;;
13122;SDS011;6627;50.920;12.050;2023-07-16T11:09:51;6.10;;;2.23;;
13122;SDS011;6627;50.920;12.050;2023-07-16T11:12:21;5.03;;;2.20;;
13122;SDS011;6627;50.920;12.050;2023-07-16T11:14:50;3.93;;;2.00;;
13122;SDS011;6627;50.920;12.050;2023-07-16T11:17:19;3.47;;;2.10;;
13122;SDS011;6627;50.920;12.050;2023-07-16T11:19:48;4.23;;;2.00;;
13122;SDS011;6627;50.920;12.050;2023-07-16T11:22:19;6.27;;;2.10;;
13122;SDS011;6627;50.920;12.050;2023-07-16T11:24:53;3.67;;;2.20;;
13122;SDS011;6627;50.920;12.050;2023-07-16T11:27:21;4.10;;;2.33;;
13122;SDS011;6627;50.920;12.050;2023-07-16T11:29:50;6.70;;;2.27;;
13122;SDS011;6627;50.920;12.050;2023-07-16T11:32:27;2.93;;;2.10;;
13122;SDS011;6627;50.920;12.050;2023-07-16T11:34:56;5.97;;;2.30;;
13122;SDS011;6627;50.920;12.050;2023-07-16T11:37:27;3.97;;;2.33;;
13122;SDS011;6627;50.920;12.050;2023-07-16T11:39:56;5.37;;;2.33;;
13122;SDS011;6627;50.920;12.050;2023-07-16T11:42:27;3.67;;;2.13;;
13122;SDS011;6627;50.920;12.050;2023-07-16T11:44:55;4.50;;;2.10;;
13122;SDS011;6627;50.920;12.050;2023-07-16T11:47:23;2.97;;;1.90;;
13122;SDS011;6627;50.920;12.050;2023-07-16T11:49:50;3.87;;;2.00;;
13122;SDS011;6627;50.920;12.050;2023-07-16T11:52:19;7.70;;;2.30;;
13122;SDS011;6627;50.920;12.050;2023-07-16T11:54:49;5.63;;;2.33;;
13122;SDS011;6627;50.920;12.050;2023-07-16T11:57:17;3.80;;;2.40;;
13122;SDS011;6627;50.920;12.050;2023-07-16T11:59:44;5.03;;;2.40;;
13122;SDS011;6627;50.920;12.050;2023-07-16T12:02:12;3.67;;;2.20;;
13122;SDS011;6627;50.920;12.050;2023-07-16T12:04:40;3.50;;;2.40;;
13122;SDS011;6627;50.920;12.050;2023-07-16T12:07:07;4.22;;;2.67;;
13122;SDS011;6627;50.920;12.050;2023-07-16T12:09:34;4.33;;;2.63;;
13122;SDS011;6627;50.920;12.050;2023-07-16T12:12:04;5.90;;;2.77;;
13122;SDS011;6627;50.920;12.050;2023-07-16T12:14:32;4.43;;;2.50;;
13122;SDS011;6627;50.920;12.050;2023-07-16T12:17:00;3.17;;;2.63;;
13122;SDS011;6627;50.920;12.050;2023-07-16T12:19:27;4.83;;;2.50;;
13122;SDS011;6627;50.920;12.050;2023-07-16T12:21:55;5.77;;;2.60;;
13122;SDS011;6627;50.920;12.050;2023-07-16T12:24:25;5.27;;;2.23;;
13122;SDS011;6627;50.920;12.050;2023-07-16T12:26:52;3.67;;;2.67;;
13122;SDS011;6627;50.920;12.050;2023-07-16T12:29:21;4.17;;;2.53;;
13122;SDS011;6627;50.920;12.050;2023-07-16T12:31:49;4.10;;;2.70;;
13122;SDS011;6627;50.920;12.050;2023-07-16T12:34:16;8.20;;;2.87;;
13122;SDS011;6627;50.920;12.050;2023-07-16T12:36:44;4.63;;;2.47;;
13122;SDS011;6627;50.920;12.050;2023-07-16T12:39:12;4.10;;;2.43;;
13122;SDS011;6627;50.920;12.050;2023-07-16T12:41:39;5.27;;;2.57;;
13122;SDS011;6627;50.920;12.050;2023-07-16T12:44:06;4.87;;;2.50;;
13122;SDS011;6627;50.920;12.050;2023-07-16T12:46:35;6.47;;;2.50;;
13122;SDS011;6627;50.920;12.050;2023-07-16T12:49:04;4.20;;;2.73;;
13122;SDS011;6627;50.920;12.050;2023-07-16T12:51:32;4.00;;;2.47;;
13122;SDS011;6627;50.920;12.050;2023-07-16T12:53:59;5.05;;;2.58;;
13122;SDS011;6627;50.920;12.050;2023-07-16T12:56:27;3.97;;;2.50;;
13122;SDS011;6627;50.920;12.050;2023-07-16T12:58:56;5.25;;;2.60;;
13122;SDS011;6627;50.920;12.050;2023-07-16T13:01:24;4.03;;;2.93;;
13122;SDS011;6627;50.920;12.050;2023-07-16T13:03:53;5.03;;;2.85;;
13122;SDS011;6627;50.920;12.050;2023-07-16T13:06:20;3.58;;;2.53;;
13122;SDS011;6627;50.920;12.050;2023-07-16T13:08:48;4.63;;;2.80;;
13122;SDS011;6627;50.920;12.050;2023-07-16T13:11:15;4.67;;;2.70;;
13122;SDS011;6627;50.920;12.050;2023-07-16T13:13:44;7.13;;;2.63;;
13122;SDS011;6627;50.920;12.050;2023-07-16T13:16:11;5.10;;;2.78;;
13122;SDS011;6627;50.920;12.050;2023-07-16T13:18:38;3.75;;;2.65;;
13122;SDS011;6627;50.920;12.050;2023-07-16T13:21:08;5.43;;;3.30;;
13122;SDS011;6627;50.920;12.050;2023-07-16T13:23:35;4.63;;;2.73;;
13122;SDS011;6627;50.920;12.050;2023-07-16T13:26:02;4.10;;;2.60;;
13122;SDS011;6627;50.920;12.050;2023-07-16T13:28:29;3.40;;;2.72;;
13122;SDS011;6627;50.920;12.050;2023-07-16T13:30:58;5.47;;;2.60;;
13122;SDS011;6627;50.920;12.050;2023-07-16T13:33:26;5.05;;;2.80;;
13122;SDS011;6627;50.920;12.050;2023-07-16T13:35:53;4.38;;;2.67;;
13122;SDS011;6627;50.920;12.050;2023-07-16T13:38:22;7.97;;;3.10;;
13122;SDS011;6627;50.920;12.050;2023-07-16T13:40:49;5.80;;;3.00;;
13122;SDS011;6627;50.920;12.050;2023-07-16T13:43:16;4.60;;;2.83;;
13122;SDS011;6627;50.920;12.050;2023-07-16T13:45:43;5.93;;;3.00;;
13122;SDS011;6627;50.920;12.050;2023-07-16T13:48:11;3.53;;;2.70;;
13122;SDS011;6627;50.920;12.050;2023-07-16T13:50:38;3.75;;;2.70;;
13122;SDS011;6627;50.920;12.050;2023-07-16T13:53:05;4.57;;;2.80;;
13122;SDS011;6627;50.920;12.050;2023-07-16T13:55:33;4.93;;;2.87;;
13122;SDS011;6627;50.920;12.050;2023-07-16T13:58:01;4.00;;;2.67;;
13122;SDS011;6627;50.920;12.050;2023-07-16T14:00:28;5.27;;;2.70;;
13122;SDS011;6627;50.920;12.050;2023-07-16T14:02:55;6.03;;;3.10;;
13122;SDS011;6627;50.920;12.050;2023-07-16T14:05:24;4.73;;;2.87;;
13122;SDS011;6627;50.920;12.050;2023-07-16T14:07:52;5.27;;;2.80;;
13122;SDS011;6627;50.920;12.050;2023-07-16T14:10:20;4.53;;;2.70;;
13122;SDS011;6627;50.920;12.050;2023-07-16T14:12:49;4.43;;;3.10;;
13122;SDS011;6627;50.920;12.050;2023-07-16T14:15:16;5.33;;;3.00;;
13122;SDS011;6627;50.920;12.050;2023-07-16T14:17:44;4.10;;;2.60;;
13122;SDS011;6627;50.920;12.050;2023-07-16T14:20:11;6.10;;;2.70;;
13122;SDS011;6627;50.920;12.050;2023-07-16T14:22:39;5.43;;;2.83;;
13122;SDS011;6627;50.920;12.050;2023-07-16T14:25:07;5.47;;;2.80;;
13122;SDS011;6627;50.920;12.050;2023-07-16T14:27:35;6.10;;;3.27;;
13122;SDS011;6627;50.920;12.050;2023-07-16T14:30:04;5.37;;;2.80;;
13122;SDS011;6627;50.920;12.050;2023-07-16T14:32:34;3.70;;;2.97;;
13122;SDS011;6627;50.920;12.050;2023-07-16T14:35:02;7.35;;;2.90;;
13122;SDS011;6627;50.920;12.050;2023-07-16T14:37:30;4.10;;;2.63;;
13122;SDS011;6627;50.920;12.050;2023-07-16T14:39:57;5.63;;;2.90;;
13122;SDS011;6627;50.920;12.050;2023-07-16T14:42:25;6.97;;;3.00;;
13122;SDS011;6627;50.920;12.050;2023-07-16T14:44:52;4.53;;;2.60;;
13122;SDS011;6627;50.920;12.050;2023-07-16T14:47:21;7.15;;;2.67;;
13122;SDS011;6627;50.920;12.050;2023-07-16T14:49:48;4.20;;;2.70;;
13122;SDS011;6627;50.920;12.050;2023-07-16T14:52:17;3.90;;;2.80;;
13122;SDS011;6627;50.920;12.050;2023-07-16T14:54:45;3.50;;;3.03;;
13122;SDS011;6627;50.920;12.050;2023-07-16T14:57:13;5.65;;;2.95;;